createdAt,value
2023-04-01T00:00:16.462Z,93940.00
2023-04-01T00:01:16.463Z,93938.00
2023-04-01T00:02:16.574Z,93934.00
2023-04-01T00:03:16.775Z,93934.00
2023-04-01T00:04:16.707Z,93934.00
2023-04-01T00:05:16.757Z,93936.00
2023-04-01T00:06:16.821Z,93940.00
2023-04-01T00:07:16.854Z,93940.00
2023-04-01T00:08:16.986Z,93936.00
2023-04-01T00:09:17.011Z,93934.00
2023-04-01T00:10:17.041Z,93932.00
2023-04-01T00:11:17.092Z,93928.00
2023-04-01T00:12:17.156Z,93936.00
2023-04-01T00:13:17.305Z,93936.00
2023-04-01T00:14:17.279Z,93934.00
2023-04-01T00:15:17.381Z,93934.00
2023-04-01T00:16:22.129Z,93938.00
2023-04-01T00:17:19.091Z,93934.00
2023-04-01T00:18:17.410Z,93934.00
2023-04-01T00:19:17.435Z,93936.00
2023-04-01T00:20:17.410Z,93934.00
2023-04-01T00:21:17.440Z,93934.00
2023-04-01T00:22:17.394Z,93934.00
2023-04-01T00:23:17.412Z,93932.00
2023-04-01T00:24:17.362Z,93930.00
2023-04-01T00:25:17.396Z,93930.00
2023-04-01T00:26:17.441Z,93928.00
2023-04-01T00:27:17.491Z,93925.00
2023-04-01T00:28:17.566Z,93925.00
2023-04-01T00:29:17.623Z,93928.00
2023-04-01T00:30:17.682Z,93928.00
2023-04-01T00:31:17.810Z,93923.00
2023-04-01T00:32:17.794Z,93919.00
2023-04-01T00:33:17.849Z,93921.00
2023-04-01T00:34:17.983Z,93923.00
2023-04-01T00:35:17.990Z,93923.00
2023-04-01T00:36:18.110Z,93928.00
2023-04-01T00:37:18.072Z,93934.00
2023-04-01T00:38:18.162Z,93932.00
2023-04-01T00:39:18.206Z,93930.00
2023-04-01T00:40:18.268Z,93930.00
2023-04-01T00:41:18.354Z,93930.00
2023-04-01T00:42:18.378Z,93930.00
2023-04-01T00:43:18.414Z,93927.00
2023-04-01T00:44:18.455Z,93925.00
2023-04-01T00:45:18.464Z,93923.00
2023-04-01T00:46:18.544Z,93925.00
2023-04-01T00:47:18.555Z,93927.00
2023-04-01T00:48:18.638Z,93925.00
2023-04-01T00:49:18.705Z,93927.00
2023-04-01T00:50:18.681Z,93927.00
2023-04-01T00:51:18.739Z,93930.00
2023-04-01T00:52:18.765Z,93932.00
2023-04-01T00:53:18.812Z,93932.00
2023-04-01T00:54:18.875Z,93930.00
2023-04-01T00:55:18.909Z,93925.00
2023-04-01T00:56:18.935Z,93925.00
2023-04-01T00:57:19.039Z,93927.00
2023-04-01T00:58:19.071Z,93927.00
2023-04-01T00:59:19.102Z,93928.00
2023-04-01T01:00:19.141Z,93923.00
2023-04-01T01:01:19.258Z,93921.00
2023-04-01T01:02:19.295Z,93919.00
2023-04-01T01:03:19.368Z,93921.00
2023-04-01T01:04:19.322Z,93919.00
2023-04-01T01:05:19.331Z,93919.00
2023-04-01T01:06:19.423Z,93919.00
2023-04-01T01:07:19.483Z,93917.00
2023-04-01T01:08:19.515Z,93913.00
2023-04-01T01:09:19.626Z,93911.00
2023-04-01T01:10:19.572Z,93911.00
2023-04-01T01:11:19.674Z,93911.00
2023-04-01T01:12:19.647Z,93917.00
2023-04-01T01:13:19.721Z,93921.00
2023-04-01T01:14:19.732Z,93921.00
2023-04-01T01:15:19.767Z,93917.00
2023-04-01T01:16:19.921Z,93915.00
2023-04-01T01:17:19.858Z,93911.00
2023-04-01T01:18:19.902Z,93911.00
2023-04-01T01:19:19.914Z,93911.00
2023-04-01T01:20:26.161Z,93909.00
2023-04-01T01:21:20.932Z,93905.00
2023-04-01T01:22:19.964Z,93903.00
2023-04-01T01:23:19.941Z,93903.00
2023-04-01T01:24:19.922Z,93903.00
2023-04-01T01:25:19.939Z,93905.00
2023-04-01T01:26:19.937Z,93907.00
2023-04-01T01:27:19.919Z,93905.00
2023-04-01T01:28:19.880Z,93901.00
2023-04-01T01:29:19.923Z,93901.00
2023-04-01T01:30:19.981Z,93903.00
2023-04-01T01:31:20.087Z,93903.00
2023-04-01T01:32:20.069Z,93907.00
2023-04-01T01:33:20.108Z,93909.00
2023-04-01T01:34:20.138Z,93909.00
2023-04-01T01:35:20.209Z,93907.00
2023-04-01T01:36:20.223Z,93905.00
2023-04-01T01:37:20.233Z,93907.00
2023-04-01T01:38:20.264Z,93905.00
2023-04-01T01:39:20.317Z,93905.00
2023-04-01T01:40:20.375Z,93907.00
2023-04-01T01:41:20.414Z,93907.00
2023-04-01T01:42:20.437Z,93905.00
2023-04-01T01:43:20.521Z,93903.00
2023-04-01T01:44:20.551Z,93903.00
2023-04-01T01:45:20.558Z,93899.00
2023-04-01T01:46:20.660Z,93895.00
2023-04-01T01:47:20.632Z,93891.00
2023-04-01T01:48:20.662Z,93893.00
2023-04-01T01:49:20.693Z,93891.00
2023-04-01T01:50:20.712Z,93893.00
2023-04-01T01:51:20.804Z,93893.00
2023-04-01T01:52:20.815Z,93895.00
2023-04-01T01:53:20.840Z,93891.00
2023-04-01T01:54:20.872Z,93891.00
2023-04-01T01:55:20.920Z,93893.00
2023-04-01T01:56:20.948Z,93891.00
2023-04-01T01:57:21.007Z,93891.00
2023-04-01T01:58:21.014Z,93889.00
2023-04-01T01:59:21.062Z,93891.00
2023-04-01T02:00:21.055Z,93891.00
2023-04-01T02:01:21.127Z,93891.00
2023-04-01T02:02:21.099Z,93887.00
2023-04-01T02:03:21.149Z,93885.00
2023-04-01T02:04:21.218Z,93883.00
2023-04-01T02:05:21.250Z,93885.00
2023-04-01T02:06:21.263Z,93887.00
2023-04-01T02:07:21.345Z,93885.00
2023-04-01T02:08:21.381Z,93881.00
2023-04-01T02:09:21.389Z,93881.00
2023-04-01T02:10:21.463Z,93881.00
2023-04-01T02:11:21.498Z,93880.00
2023-04-01T02:12:21.574Z,93878.00
2023-04-01T02:13:21.613Z,93876.00
2023-04-01T02:14:21.661Z,93874.00
2023-04-01T02:15:21.690Z,93878.00
2023-04-01T02:16:21.764Z,93883.00
2023-04-01T02:17:21.790Z,93883.00
2023-04-01T02:18:21.790Z,93883.00
2023-04-01T02:19:21.882Z,93885.00
2023-04-01T02:20:21.906Z,93887.00
2023-04-01T02:21:21.960Z,93889.00
2023-04-01T02:22:21.988Z,93889.00
2023-04-01T02:23:21.965Z,93893.00
2023-04-01T02:24:22.035Z,93895.00
2023-04-01T02:25:22.027Z,93895.00
2023-04-01T02:26:22.087Z,93899.00
2023-04-01T02:27:22.100Z,93901.00
2023-04-01T02:28:22.158Z,93901.00
2023-04-01T02:29:22.221Z,93903.00
2023-04-01T02:30:22.244Z,93899.00
2023-04-01T02:31:22.297Z,93901.00
2023-04-01T02:32:22.328Z,93901.00
2023-04-01T02:33:22.308Z,93903.00
2023-04-01T02:34:22.353Z,93905.00
2023-04-01T02:35:22.420Z,93903.00
2023-04-01T02:36:22.476Z,93907.00
2023-04-01T02:37:22.476Z,93901.00
2023-04-01T02:38:22.536Z,93907.00
2023-04-01T02:39:22.593Z,93909.00
2023-04-01T02:40:22.585Z,93907.00
2023-04-01T02:41:22.644Z,93901.00
2023-04-01T02:42:22.671Z,93901.00
2023-04-01T02:43:22.741Z,93903.00
2023-04-01T02:44:22.771Z,93903.00
2023-04-01T02:45:22.787Z,93905.00
2023-04-01T02:46:22.864Z,93903.00
2023-04-01T02:47:22.900Z,93903.00
2023-04-01T02:48:22.843Z,93905.00
2023-04-01T02:49:22.883Z,93909.00
2023-04-01T02:50:22.877Z,93913.00
2023-04-01T02:51:22.906Z,93915.00
2023-04-01T02:52:22.917Z,93915.00
2023-04-01T02:53:22.942Z,93915.00
2023-04-01T02:54:22.972Z,93915.00
2023-04-01T02:55:22.981Z,93921.00
2023-04-01T02:56:22.987Z,93921.00
2023-04-01T02:57:23.085Z,93921.00
2023-04-01T02:58:22.990Z,93923.00
2023-04-01T02:59:23.004Z,93925.00
2023-04-01T03:00:23.007Z,93923.00
2023-04-01T03:01:23.054Z,93927.00
2023-04-01T03:02:23.055Z,93928.00
2023-04-01T03:03:23.133Z,93930.00
2023-04-01T03:04:23.134Z,93930.00
2023-04-01T03:05:23.118Z,93930.00
2023-04-01T03:06:23.209Z,93930.00
2023-04-01T03:07:23.221Z,93932.00
2023-04-01T03:08:23.216Z,93936.00
2023-04-01T03:09:23.281Z,93938.00
2023-04-01T03:10:23.242Z,93942.00
2023-04-01T03:11:23.310Z,93942.00
2023-04-01T03:12:23.269Z,93942.00
2023-04-01T03:13:23.323Z,93946.00
2023-04-01T03:14:23.360Z,93944.00
2023-04-01T03:15:23.371Z,93946.00
2023-04-01T03:16:23.434Z,93948.00
2023-04-01T03:17:23.473Z,93950.00
2023-04-01T03:18:23.444Z,93954.00
2023-04-01T03:19:23.531Z,93958.00
2023-04-01T03:20:23.575Z,93960.00
2023-04-01T03:21:23.573Z,93960.00
2023-04-01T03:22:23.601Z,93962.00
2023-04-01T03:23:23.626Z,93964.00
2023-04-01T03:24:23.654Z,93966.00
2023-04-01T03:25:23.708Z,93966.00
2023-04-01T03:26:23.682Z,93962.00
2023-04-01T03:27:23.654Z,93962.00
2023-04-01T03:28:23.692Z,93958.00
2023-04-01T03:29:23.681Z,93960.00
2023-04-01T03:30:23.711Z,93958.00
2023-04-01T03:31:23.995Z,93956.00
2023-04-01T03:32:23.729Z,93958.00
2023-04-01T03:33:23.705Z,93958.00
2023-04-01T03:34:23.686Z,93958.00
2023-04-01T03:35:23.670Z,93956.00
2023-04-01T03:36:23.781Z,93960.00
2023-04-01T03:37:23.706Z,93958.00
2023-04-01T03:38:23.745Z,93962.00
2023-04-01T03:39:23.700Z,93962.00
2023-04-01T03:40:23.686Z,93962.00
2023-04-01T03:41:23.672Z,93962.00
2023-04-01T03:42:23.709Z,93966.00
2023-04-01T03:43:23.685Z,93968.00
2023-04-01T03:44:23.687Z,93966.00
2023-04-01T03:45:23.737Z,93964.00
2023-04-01T03:46:23.790Z,93962.00
2023-04-01T03:47:23.861Z,93960.00
2023-04-01T03:48:23.717Z,93960.00
2023-04-01T03:49:23.711Z,93962.00
2023-04-01T03:50:23.713Z,93964.00
2023-04-01T03:51:23.711Z,93962.00
2023-04-01T03:52:23.786Z,93962.00
2023-04-01T03:53:23.738Z,93962.00
2023-04-01T03:54:23.750Z,93962.00
2023-04-01T03:55:23.768Z,93966.00
2023-04-01T03:56:23.746Z,93966.00
2023-04-01T03:57:23.825Z,93966.00
2023-04-01T03:58:23.824Z,93964.00
2023-04-01T03:59:23.804Z,93964.00
2023-04-01T04:00:23.842Z,93966.00
2023-04-01T04:01:23.886Z,93966.00
2023-04-01T04:02:23.898Z,93964.00
2023-04-01T04:03:23.946Z,93962.00
2023-04-01T04:04:23.947Z,93958.00
2023-04-01T04:05:23.933Z,93958.00
2023-04-01T04:06:23.990Z,93960.00
2023-04-01T04:07:23.981Z,93964.00
2023-04-01T04:08:23.986Z,93964.00
2023-04-01T04:09:24.070Z,93968.00
2023-04-01T04:10:24.044Z,93970.00
2023-04-01T04:11:24.076Z,93966.00
2023-04-01T04:12:24.109Z,93974.00
2023-04-01T04:13:24.139Z,93968.00
2023-04-01T04:14:24.188Z,93966.00
2023-04-01T04:15:24.132Z,93972.00
2023-04-01T04:16:24.178Z,93976.00
2023-04-01T04:17:24.151Z,93974.00
2023-04-01T04:18:24.181Z,93974.00
2023-04-01T04:19:24.149Z,93974.00
2023-04-01T04:20:24.128Z,93976.00
2023-04-01T04:21:24.144Z,93978.00
2023-04-01T04:22:24.177Z,93982.00
2023-04-01T04:23:24.158Z,93985.00
2023-04-01T04:24:24.162Z,93987.00
2023-04-01T04:25:24.184Z,93995.00
2023-04-01T04:26:24.182Z,93991.00
2023-04-01T04:27:24.246Z,93999.00
2023-04-01T04:28:24.197Z,93993.00
2023-04-01T04:29:24.256Z,93991.00
2023-04-01T04:30:24.233Z,93993.00
2023-04-01T04:31:24.245Z,93993.00
2023-04-01T04:32:24.266Z,93995.00
2023-04-01T04:33:24.266Z,93999.00
2023-04-01T04:34:25.192Z,94001.00
2023-04-01T04:35:24.292Z,94003.00
2023-04-01T04:36:24.304Z,94007.00
2023-04-01T04:37:24.286Z,94007.00
2023-04-01T04:38:24.268Z,94007.00
2023-04-01T04:39:24.271Z,94005.00
2023-04-01T04:40:24.292Z,94001.00
2023-04-01T04:41:24.299Z,93999.00
2023-04-01T04:42:24.296Z,93995.00
2023-04-01T04:43:24.282Z,93995.00
2023-04-01T04:44:24.342Z,93995.00
2023-04-01T04:45:24.339Z,93995.00
2023-04-01T04:46:24.606Z,93997.00
2023-04-01T04:47:24.433Z,93997.00
2023-04-01T04:48:24.420Z,93999.00
2023-04-01T04:49:24.438Z,94001.00
2023-04-01T04:50:24.388Z,94003.00
2023-04-01T04:51:24.414Z,94005.00
2023-04-01T04:52:24.420Z,94003.00
2023-04-01T04:53:24.419Z,94003.00
2023-04-01T04:54:24.428Z,94003.00
2023-04-01T04:55:24.469Z,94003.00
2023-04-01T04:56:24.415Z,94003.00
2023-04-01T04:57:24.544Z,94005.00
2023-04-01T04:58:24.478Z,94005.00
2023-04-01T04:59:24.513Z,94007.00
2023-04-01T05:00:24.449Z,94009.00
2023-04-01T05:01:24.562Z,94007.00
2023-04-01T05:02:24.542Z,94005.00
2023-04-01T05:03:24.636Z,94003.00
2023-04-01T05:04:24.535Z,94003.00
2023-04-01T05:05:24.494Z,94007.00
2023-04-01T05:06:24.514Z,94011.00
2023-04-01T05:07:24.534Z,94011.00
2023-04-01T05:08:24.540Z,94013.00
2023-04-01T05:09:24.535Z,94015.00
2023-04-01T05:10:24.533Z,94015.00
2023-04-01T05:11:24.524Z,94021.00
2023-04-01T05:12:24.511Z,94025.00
2023-04-01T05:13:24.541Z,94027.00
2023-04-01T05:14:24.555Z,94027.00
2023-04-01T05:15:24.533Z,94027.00
2023-04-01T05:16:24.603Z,94025.00
2023-04-01T05:17:24.586Z,94023.00
2023-04-01T05:18:24.552Z,94023.00
2023-04-01T05:19:24.547Z,94019.00
2023-04-01T05:20:24.575Z,94019.00
2023-04-01T05:21:24.590Z,94019.00
2023-04-01T05:22:24.577Z,94017.00
2023-04-01T05:23:24.532Z,94023.00
2023-04-01T05:24:24.523Z,94023.00
2023-04-01T05:25:24.557Z,94027.00
2023-04-01T05:26:24.527Z,94025.00
2023-04-01T05:27:24.564Z,94023.00
2023-04-01T05:28:24.532Z,94025.00
2023-04-01T05:29:24.550Z,94027.00
2023-04-01T05:30:24.617Z,94030.00
2023-04-01T05:31:24.694Z,94030.00
2023-04-01T05:32:24.622Z,94030.00
2023-04-01T05:33:24.641Z,94027.00
2023-04-01T05:34:24.646Z,94025.00
2023-04-01T05:35:24.697Z,94025.00
2023-04-01T05:36:24.616Z,94027.00
2023-04-01T05:37:24.612Z,94025.00
2023-04-01T05:38:24.620Z,94027.00
2023-04-01T05:39:24.628Z,94029.00
2023-04-01T05:40:24.644Z,94029.00
2023-04-01T05:41:24.636Z,94027.00
2023-04-01T05:42:24.648Z,94029.00
2023-04-01T05:43:24.644Z,94021.00
2023-04-01T05:44:24.633Z,94023.00
2023-04-01T05:45:24.617Z,94021.00
2023-04-01T05:46:24.651Z,94023.00
2023-04-01T05:47:24.676Z,94023.00
2023-04-01T05:48:24.613Z,94023.00
2023-04-01T05:49:26.232Z,94021.00
2023-04-01T05:50:24.605Z,94021.00
2023-04-01T05:51:24.619Z,94023.00
2023-04-01T05:52:24.593Z,94025.00
2023-04-01T05:53:24.579Z,94027.00
2023-04-01T05:54:24.601Z,94030.00
2023-04-01T05:55:24.574Z,94030.00
2023-04-01T05:56:24.565Z,94030.00
2023-04-01T05:57:24.594Z,94030.00
2023-04-01T05:58:24.544Z,94030.00
2023-04-01T05:59:24.538Z,94030.00
2023-04-01T06:00:24.546Z,94030.00
2023-04-01T06:01:24.553Z,94034.00
2023-04-01T06:02:24.576Z,94034.00
2023-04-01T06:03:24.873Z,94034.00
2023-04-01T06:04:24.532Z,94030.00
2023-04-01T06:05:24.535Z,94029.00
2023-04-01T06:06:24.489Z,94027.00
2023-04-01T06:07:24.465Z,94027.00
2023-04-01T06:08:24.486Z,94025.00
2023-04-01T06:09:24.437Z,94030.00
2023-04-01T06:10:24.482Z,94032.00
2023-04-01T06:11:24.465Z,94034.00
2023-04-01T06:12:25.216Z,94036.00
2023-04-01T06:13:24.445Z,94036.00
2023-04-01T06:14:24.446Z,94036.00
2023-04-01T06:15:24.405Z,94036.00
2023-04-01T06:16:24.479Z,94038.00
2023-04-01T06:17:24.434Z,94040.00
2023-04-01T06:18:24.417Z,94040.00
2023-04-01T06:19:24.381Z,94040.00
2023-04-01T06:20:24.401Z,94042.00
2023-04-01T06:21:24.387Z,94042.00
2023-04-01T06:22:24.379Z,94044.00
2023-04-01T06:23:24.353Z,94042.00
2023-04-01T06:24:24.384Z,94040.00
2023-04-01T06:25:24.722Z,94040.00
2023-04-01T06:26:24.343Z,94042.00
2023-04-01T06:27:24.318Z,94044.00
2023-04-01T06:28:25.232Z,94046.00
2023-04-01T06:29:24.316Z,94048.00
2023-04-01T06:30:24.357Z,94046.00
2023-04-01T06:31:24.366Z,94046.00
2023-04-01T06:32:24.349Z,94046.00
2023-04-01T06:33:24.290Z,94048.00
2023-04-01T06:34:24.291Z,94050.00
2023-04-01T06:35:24.367Z,94052.00
2023-04-01T06:36:24.475Z,94048.00
2023-04-01T06:37:24.287Z,94048.00
2023-04-01T06:38:24.230Z,94046.00
2023-04-01T06:39:24.242Z,94046.00
2023-04-01T06:40:24.252Z,94046.00
2023-04-01T06:41:24.224Z,94040.00
2023-04-01T06:42:24.234Z,94034.00
2023-04-01T06:43:24.235Z,94029.00
2023-04-01T06:44:24.240Z,94027.00
2023-04-01T06:45:24.233Z,94025.00
2023-04-01T06:46:24.341Z,94027.00
2023-04-01T06:47:24.210Z,94023.00
2023-04-01T06:48:24.206Z,94021.00
2023-04-01T06:49:24.181Z,94019.00
2023-04-01T06:50:24.424Z,94025.00
2023-04-01T06:51:24.173Z,94025.00
2023-04-01T06:52:24.171Z,94025.00
2023-04-01T06:53:24.155Z,94023.00
2023-04-01T06:54:24.143Z,94021.00
2023-04-01T06:55:24.148Z,94019.00
2023-04-01T06:56:24.164Z,94017.00
2023-04-01T06:57:24.181Z,94015.00
2023-04-01T06:58:24.149Z,94019.00
2023-04-01T06:59:24.103Z,94021.00
2023-04-01T07:00:24.135Z,94023.00
2023-04-01T07:01:24.154Z,94025.00
2023-04-01T07:02:24.228Z,94025.00
2023-04-01T07:03:24.112Z,94025.00
2023-04-01T07:04:24.126Z,94023.00
2023-04-01T07:05:24.077Z,94025.00
2023-04-01T07:06:24.061Z,94025.00
2023-04-01T07:07:24.054Z,94023.00
2023-04-01T07:08:24.065Z,94021.00
2023-04-01T07:09:24.037Z,94023.00
2023-04-01T07:10:24.059Z,94023.00
2023-04-01T07:11:24.056Z,94027.00
2023-04-01T07:12:24.034Z,94027.00
2023-04-01T07:13:24.031Z,94027.00
2023-04-01T07:14:23.992Z,94027.00
2023-04-01T07:15:24.044Z,94025.00
2023-04-01T07:16:24.070Z,94023.00
2023-04-01T07:17:24.023Z,94023.00
2023-04-01T07:18:23.971Z,94023.00
2023-04-01T07:19:23.973Z,94023.00
2023-04-01T07:20:23.970Z,94023.00
2023-04-01T07:21:23.982Z,94023.00
2023-04-01T07:22:23.951Z,94021.00
2023-04-01T07:23:23.976Z,94023.00
2023-04-01T07:24:23.942Z,94023.00
2023-04-01T07:25:23.969Z,94025.00
2023-04-01T07:26:23.939Z,94025.00
2023-04-01T07:27:23.913Z,94021.00
2023-04-01T07:28:23.951Z,94023.00
2023-04-01T07:29:25.818Z,94021.00
2023-04-01T07:30:23.950Z,94025.00
2023-04-01T07:31:23.920Z,94023.00
2023-04-01T07:32:23.978Z,94023.00
2023-04-01T07:33:23.875Z,94023.00
2023-04-01T07:34:23.866Z,94027.00
2023-04-01T07:35:23.892Z,94025.00
2023-04-01T07:36:23.950Z,94027.00
2023-04-01T07:37:23.872Z,94027.00
2023-04-01T07:38:23.921Z,94030.00
2023-04-01T07:39:23.926Z,94034.00
2023-04-01T07:40:23.978Z,94034.00
2023-04-01T07:41:24.009Z,94034.00
2023-04-01T07:42:24.035Z,94034.00
2023-04-01T07:43:24.107Z,94036.00
2023-04-01T07:44:24.133Z,94034.00
2023-04-01T07:45:24.178Z,94036.00
2023-04-01T07:46:24.281Z,94036.00
2023-04-01T07:47:24.295Z,94034.00
2023-04-01T07:48:24.340Z,94034.00
2023-04-01T07:49:24.362Z,94036.00
2023-04-01T07:50:24.497Z,94036.00
2023-04-01T07:51:24.497Z,94036.00
2023-04-01T07:52:24.559Z,94036.00
2023-04-01T07:53:24.569Z,94036.00
2023-04-01T07:54:24.652Z,94038.00
2023-04-01T07:55:24.688Z,94040.00
2023-04-01T07:56:24.726Z,94038.00
2023-04-01T07:57:24.816Z,94038.00
2023-04-01T07:58:24.829Z,94038.00
2023-04-01T07:59:24.891Z,94036.00
2023-04-01T08:00:24.955Z,94044.00
2023-04-01T08:01:24.997Z,94044.00
2023-04-01T08:02:25.135Z,94040.00
2023-04-01T08:03:25.155Z,94036.00
2023-04-01T08:04:25.178Z,94036.00
2023-04-01T08:05:25.239Z,94032.00
2023-04-01T08:06:25.250Z,94030.00
2023-04-01T08:07:25.348Z,94030.00
2023-04-01T08:08:25.389Z,94029.00
2023-04-01T08:09:25.446Z,94034.00
2023-04-01T08:10:25.516Z,94032.00
2023-04-01T08:11:25.584Z,94030.00
2023-04-01T08:12:25.582Z,94030.00
2023-04-01T08:13:25.661Z,94029.00
2023-04-01T08:14:25.704Z,94030.00
2023-04-01T08:15:25.762Z,94030.00
2023-04-01T08:16:25.847Z,94029.00
2023-04-01T08:17:25.900Z,94027.00
2023-04-01T08:18:25.930Z,94027.00
2023-04-01T08:19:25.978Z,94027.00
2023-04-01T08:20:26.064Z,94027.00
2023-04-01T08:21:26.110Z,94025.00
2023-04-01T08:22:26.157Z,94025.00
2023-04-01T08:23:26.203Z,94023.00
2023-04-01T08:24:29.727Z,94021.00
2023-04-01T08:25:27.287Z,94017.00
2023-04-01T08:26:26.260Z,94017.00
2023-04-01T08:27:26.247Z,94011.00
2023-04-01T08:28:26.243Z,94011.00
2023-04-01T08:29:26.240Z,94007.00
2023-04-01T08:30:26.263Z,94009.00
2023-04-01T08:31:26.247Z,94005.00
2023-04-01T08:32:26.270Z,94005.00
2023-04-01T08:33:26.302Z,94001.00
2023-04-01T08:34:26.342Z,94001.00
2023-04-01T08:35:26.429Z,94001.00
2023-04-01T08:36:26.505Z,94001.00
2023-04-01T08:37:26.528Z,94003.00
2023-04-01T08:38:26.615Z,93999.00
2023-04-01T08:39:26.693Z,94001.00
2023-04-01T08:40:26.713Z,93999.00
2023-04-01T08:41:26.803Z,94001.00
2023-04-01T08:42:26.892Z,93999.00
2023-04-01T08:43:26.953Z,93997.00
2023-04-01T08:44:26.979Z,93999.00
2023-04-01T08:45:27.052Z,93997.00
2023-04-01T08:46:27.192Z,93997.00
2023-04-01T08:47:27.188Z,93993.00
2023-04-01T08:48:27.292Z,93997.00
2023-04-01T08:49:27.287Z,93999.00
2023-04-01T08:50:27.324Z,94001.00
2023-04-01T08:51:27.381Z,94001.00
2023-04-01T08:52:27.442Z,93997.00
2023-04-01T08:53:27.516Z,93997.00
2023-04-01T08:54:27.532Z,93997.00
2023-04-01T08:55:27.626Z,93999.00
2023-04-01T08:56:27.653Z,93997.00
2023-04-01T08:57:27.743Z,94001.00
2023-04-01T08:58:27.783Z,93997.00
2023-04-01T08:59:27.825Z,93993.00
2023-04-01T09:00:27.862Z,93991.00
2023-04-01T09:01:27.917Z,93991.00
2023-04-01T09:02:28.050Z,93995.00
2023-04-01T09:03:28.213Z,93993.00
2023-04-01T09:04:28.051Z,93993.00
2023-04-01T09:05:28.082Z,93995.00
2023-04-01T09:06:28.169Z,93993.00
2023-04-01T09:07:28.205Z,93991.00
2023-04-01T09:08:28.235Z,93991.00
2023-04-01T09:09:28.293Z,93989.00
2023-04-01T09:10:28.339Z,93993.00
2023-04-01T09:11:28.411Z,93993.00
2023-04-01T09:12:28.412Z,93991.00
2023-04-01T09:13:28.481Z,93985.00
2023-04-01T09:14:28.516Z,93985.00
2023-04-01T09:15:28.635Z,93985.00
2023-04-01T09:16:28.648Z,93982.00
2023-04-01T09:17:28.645Z,93980.00
2023-04-01T09:18:28.686Z,93976.00
2023-04-01T09:19:28.752Z,93976.00
2023-04-01T09:20:28.775Z,93974.00
2023-04-01T09:21:28.807Z,93976.00
2023-04-01T09:22:28.830Z,93974.00
2023-04-01T09:23:28.907Z,93970.00
2023-04-01T09:24:28.900Z,93966.00
2023-04-01T09:25:28.945Z,93966.00
2023-04-01T09:26:28.980Z,93966.00
2023-04-01T09:27:29.037Z,93962.00
2023-04-01T09:28:29.051Z,93964.00
2023-04-01T09:29:29.082Z,93962.00
2023-04-01T09:30:29.315Z,93962.00
2023-04-01T09:31:29.189Z,93960.00
2023-04-01T09:32:29.242Z,93956.00
2023-04-01T09:33:29.196Z,93954.00
2023-04-01T09:34:29.210Z,93952.00
2023-04-01T09:35:29.279Z,93952.00
2023-04-01T09:36:30.872Z,93952.00
2023-04-01T09:37:29.327Z,93948.00
2023-04-01T09:38:29.370Z,93948.00
2023-04-01T09:39:29.391Z,93948.00
2023-04-01T09:40:29.420Z,93946.00
2023-04-01T09:41:29.456Z,93948.00
2023-04-01T09:42:29.486Z,93950.00
2023-04-01T09:43:29.482Z,93950.00
2023-04-01T09:44:29.520Z,93942.00
2023-04-01T09:45:29.553Z,93940.00
2023-04-01T09:46:29.592Z,93938.00
2023-04-01T09:47:29.594Z,93938.00
2023-04-01T09:48:29.619Z,93934.00
2023-04-01T09:49:29.596Z,93936.00
2023-04-01T09:50:29.659Z,93938.00
2023-04-01T09:51:29.677Z,93940.00
2023-04-01T09:52:29.704Z,93934.00
2023-04-01T09:53:29.709Z,93932.00
2023-04-01T09:54:29.728Z,93928.00
2023-04-01T09:55:29.803Z,93930.00
2023-04-01T09:56:29.784Z,93930.00
2023-04-01T09:57:29.926Z,93928.00
2023-04-01T09:58:29.820Z,93923.00
2023-04-01T09:59:29.868Z,93923.00
2023-04-01T10:00:29.874Z,93923.00
2023-04-01T10:01:29.898Z,93921.00
2023-04-01T10:02:30.002Z,93919.00
2023-04-01T10:03:30.031Z,93917.00
2023-04-01T10:04:29.911Z,93921.00
2023-04-01T10:05:29.971Z,93917.00
2023-04-01T10:06:29.983Z,93917.00
2023-04-01T10:07:30.027Z,93917.00
2023-04-01T10:08:30.012Z,93915.00
2023-04-01T10:09:30.009Z,93913.00
2023-04-01T10:10:30.055Z,93911.00
2023-04-01T10:11:30.057Z,93909.00
2023-04-01T10:12:30.061Z,93909.00
2023-04-01T10:13:30.096Z,93909.00
2023-04-01T10:14:30.103Z,93909.00
2023-04-01T10:15:30.125Z,93907.00
2023-04-01T10:16:30.172Z,93905.00
2023-04-01T10:17:30.274Z,93907.00
2023-04-01T10:18:30.188Z,93905.00
2023-04-01T10:19:30.168Z,93911.00
2023-04-01T10:20:30.233Z,93907.00
2023-04-01T10:21:30.232Z,93901.00
2023-04-01T10:22:30.215Z,93901.00
2023-04-01T10:23:30.221Z,93897.00
2023-04-01T10:24:30.260Z,93893.00
2023-04-01T10:25:30.277Z,93893.00
2023-04-01T10:26:30.308Z,93891.00
2023-04-01T10:27:30.293Z,93887.00
2023-04-01T10:28:30.273Z,93885.00
2023-04-01T10:29:30.318Z,93885.00
2023-04-01T10:30:30.316Z,93887.00
2023-04-01T10:31:30.295Z,93887.00
2023-04-01T10:32:30.406Z,93883.00
2023-04-01T10:33:30.310Z,93883.00
2023-04-01T10:34:30.377Z,93885.00
2023-04-01T10:35:30.445Z,93883.00
2023-04-01T10:36:30.378Z,93883.00
2023-04-01T10:37:30.381Z,93880.00
2023-04-01T10:38:30.416Z,93876.00
2023-04-01T10:39:30.436Z,93878.00
2023-04-01T10:40:30.415Z,93876.00
2023-04-01T10:41:30.460Z,93876.00
2023-04-01T10:42:30.467Z,93874.00
2023-04-01T10:43:30.447Z,93874.00
2023-04-01T10:44:30.450Z,93874.00
2023-04-01T10:45:30.516Z,93870.00
2023-04-01T10:46:30.538Z,93872.00
2023-04-01T10:47:30.485Z,93868.00
2023-04-01T10:48:30.478Z,93868.00
2023-04-01T10:49:30.504Z,93858.00
2023-04-01T10:50:30.518Z,93868.00
2023-04-01T10:51:30.506Z,93858.00
2023-04-01T10:52:30.492Z,93870.00
2023-04-01T10:53:30.529Z,93866.00
2023-04-01T10:54:30.524Z,93866.00
2023-04-01T10:55:30.630Z,93858.00
2023-04-01T10:56:30.503Z,93854.00
2023-04-01T10:57:30.722Z,93854.00
2023-04-01T10:58:30.525Z,93850.00
2023-04-01T10:59:30.574Z,93852.00
2023-04-01T11:00:30.511Z,93854.00
2023-04-01T11:01:30.598Z,93850.00
2023-04-01T11:02:30.647Z,93848.00
2023-04-01T11:03:30.597Z,93848.00
2023-04-01T11:04:30.558Z,93848.00
2023-04-01T11:05:30.558Z,93850.00
2023-04-01T11:06:30.524Z,93848.00
2023-04-01T11:07:30.535Z,93848.00
2023-04-01T11:08:30.540Z,93848.00
2023-04-01T11:09:30.541Z,93846.00
2023-04-01T11:10:30.554Z,93846.00
2023-04-01T11:11:30.540Z,93841.00
2023-04-01T11:12:30.528Z,93839.00
2023-04-01T11:13:30.552Z,93835.00
2023-04-01T11:14:30.582Z,93833.00
2023-04-01T11:15:30.604Z,93833.00
2023-04-01T11:16:30.552Z,93829.00
2023-04-01T11:17:30.540Z,93833.00
2023-04-01T11:18:30.533Z,93823.00
2023-04-01T11:19:30.571Z,93829.00
2023-04-01T11:20:30.577Z,93827.00
2023-04-01T11:21:30.551Z,93821.00
2023-04-01T11:22:30.586Z,93817.00
2023-04-01T11:23:30.602Z,93823.00
2023-04-01T11:24:30.573Z,93819.00
2023-04-01T11:25:30.744Z,93817.00
2023-04-01T11:26:30.606Z,93819.00
2023-04-01T11:27:30.574Z,93817.00
2023-04-01T11:28:30.562Z,93819.00
2023-04-01T11:29:30.595Z,93819.00
2023-04-01T11:30:30.551Z,93815.00
2023-04-01T11:31:30.661Z,93819.00
2023-04-01T11:32:30.553Z,93813.00
2023-04-01T11:33:30.587Z,93815.00
2023-04-01T11:34:30.547Z,93811.00
2023-04-01T11:35:30.578Z,93811.00
2023-04-01T11:36:30.588Z,93811.00
2023-04-01T11:37:30.519Z,93811.00
2023-04-01T11:38:30.555Z,93811.00
2023-04-01T11:39:30.540Z,93809.00
2023-04-01T11:40:30.551Z,93807.00
2023-04-01T11:41:30.546Z,93809.00
2023-04-01T11:42:30.528Z,93809.00
2023-04-01T11:43:33.951Z,93809.00
2023-04-01T11:44:30.507Z,93807.00